Boris Syromyatnikov — UCUF — position and weather

sailwx.info

Track history (hours):
 
Tides and Currents Weather Stations Pressure Air Temp Water Temp Dewpoint Dewpoint Depression Visibility Wind Speed Wind Dir Waves Ship Positions

Boris Syromyatnikov

Last reported at 2017-Jun-19 02:26 UTC. Time now 2017-Jun-24 08:51 UTC.
Position N 58°39' E 004°45'.

Length 120 m; beam 19 m.

Type: Fishing. MMSI: 273529800.

Date/timePositionNaut miles runAvg speedWind from/ knotsBaromVisibWave heightAir tempDewpointWater temp
2017-Jun-19 02:26N 58°39' E 004°45'915.5
2017-Jun-19 01:53N 58°34' E 004°58'1515.7
2017-Jun-19 00:55N 58°24' E 005°20'615.7
2017-Jun-19 00:30N 58°20' E 005°29'815.9
2017-Jun-19 00:00N 58°14' E 005°40'815.7
2017-Jun-18 23:30N 58°09' E 005°52'815.7
2017-Jun-18 23:00N 58°05' E 006°03'815.5
2017-Jun-18 22:30N 57°60' E 006°15'815.3
2017-Jun-18 22:00N 57°54' E 006°24'815.5
2017-Jun-18 21:29N 57°49' E 006°36'815.6
2017-Jun-18 20:58N 57°47' E 006°51'715.4
2017-Jun-18 20:30N 57°46' E 007°04'815.2
2017-Jun-18 20:00N 57°45' E 007°18'815.2
2017-Jun-18 19:30N 57°45' E 007°32'815.3
2017-Jun-18 19:00N 57°45' E 007°47'714.9
2017-Jun-18 18:30N 57°46' E 008°01'5413.9
2017-Jun-18 14:36N 57°47' E 009°42'1014.0
2017-Jun-18 13:55N 57°47' E 010°00'613.4
2017-Jun-18 13:27N 57°48' E 010°12'613.4
2017-Jun-18 12:58N 57°48' E 010°24'612.6
2017-Jun-18 12:30N 57°48' E 010°35'4 8.8
2017-Jun-18 11:59N 57°48' E 010°44'4 8.3
2017-Jun-18 11:30N 57°44' E 010°46'510.4
2017-Jun-18 11:00N 57°41' E 010°38'1 1.4
2017-Jun-18 10:22N 57°41' E 010°36'0 0.0
2017-Jun-18 10:00N 57°41' E 010°36'0 0.0
2017-Jun-18 09:23N 57°41' E 010°36'0 0.0
2017-Jun-18 09:00N 57°41' E 010°36'0 0.0
2017-Jun-18 08:30N 57°41' E 010°36'0 0.0
2017-Jun-18 07:54N 57°41' E 010°36'0 0.0
2017-Jun-18 07:28N 57°41' E 010°36'0 0.0
2017-Jun-18 07:00N 57°41' E 010°36'0 0.0
2017-Jun-18 06:29N 57°41' E 010°36'0 0.0
2017-Jun-18 05:59N 57°41' E 010°36'0 0.0
2017-Jun-18 05:28N 57°41' E 010°36'0 0.0
2017-Jun-18 04:57N 57°41' E 010°36'0 0.0
2017-Jun-18 04:24N 57°41' E 010°36'0 0.0
2017-Jun-18 03:58N 57°41' E 010°36'0 0.0
2017-Jun-18 03:26N 57°41' E 010°36'0 0.0
2017-Jun-18 02:59N 57°41' E 010°36'0 0.0
2017-Jun-18 02:28N 57°41' E 010°36'0 0.0
2017-Jun-18 01:09N 57°41' E 010°36'0 0.0
2017-Jun-18 00:30N 57°41' E 010°36'0 0.0
2017-Jun-17 23:37N 57°41' E 010°36'0 0.0
2017-Jun-17 23:18N 57°41' E 010°36'0 0.0
2017-Jun-17 22:39N 57°41' E 010°36'0 0.0
2017-Jun-17 21:54N 57°41' E 010°36'0 0.0
2017-Jun-17 21:26N 57°41' E 010°36'0 0.0
2017-Jun-17 21:00N 57°41' E 010°36'0 0.0
2017-Jun-17 20:19N 57°41' E 010°36'0 0.1
2017-Jun-17 19:43N 57°41' E 010°36'1 2.8
2017-Jun-17 19:30N 57°41' E 010°37'3 6.1
2017-Jun-17 18:59N 57°40' E 010°43'510.8
2017-Jun-17 18:30N 57°37' E 010°51'713.3
2017-Jun-17 18:00N 57°34' E 011°03'714.0
2017-Jun-17 17:28N 57°31' E 011°15'714.3
2017-Jun-17 17:01N 57°28' E 011°26'714.5
2017-Jun-17 16:30N 57°21' E 011°31'714.4
2017-Jun-17 16:00N 57°14' E 011°35'714.7
2017-Jun-17 15:30N 57°07' E 011°40'714.5
2017-Jun-17 15:00N 57°00' E 011°44'1413.7
2017-Jun-17 14:00N 56°48' E 011°53'713.3
2017-Jun-17 13:30N 56°41' E 011°55'713.4
2017-Jun-17 12:58N 56°34' E 011°58'713.4
2017-Jun-17 12:27N 56°27' E 012°01'1013.3
2017-Jun-17 11:43N 56°18' E 012°05'313.6
2017-Jun-17 11:30N 56°16' E 012°10'713.7
2017-Jun-17 11:01N 56°13' E 012°20'713.4
2017-Jun-17 10:30N 56°09' E 012°30'713.1
2017-Jun-17 10:00N 56°04' E 012°38'611.1
2017-Jun-17 09:30N 55°59' E 012°42'611.2
2017-Jun-17 09:00N 55°54' E 012°44'612.2
2017-Jun-17 08:30N 55°48' E 012°43'4 7.4
2017-Jun-17 08:00N 55°44' E 012°40'0 0.1
2017-Jun-17 07:29N 55°44' E 012°40'0 0.0
2017-Jun-17 06:58N 55°44' E 012°40'0 0.5
2017-Jun-17 06:31N 55°44' E 012°40'5 9.8
2017-Jun-17 06:01N 55°39' E 012°42'510.5
2017-Jun-17 05:31N 55°34' E 012°42'510.2
2017-Jun-17 05:01N 55°29' E 012°43'4 7.6
2017-Jun-17 04:31N 55°25' E 012°42'713.2
2017-Jun-17 04:00N 55°19' E 012°42'713.7
2017-Jun-17 03:30N 55°16' E 012°53'714.3
2017-Jun-17 03:00N 55°16' E 013°06'914.6
2017-Jun-17 02:23N 55°15' E 013°21'614.6
2017-Jun-17 02:00N 55°15' E 013°31'714.5
2017-Jun-17 01:31N 55°14' E 013°44'714.6
2017-Jun-17 01:01N 55°14' E 013°56'714.5
2017-Jun-17 00:30N 55°14' E 014°09'713.1
2017-Jun-17 00:01N 55°16' E 014°20'815.2
2017-Jun-16 23:31N 55°22' E 014°28'714.7
2017-Jun-16 23:01N 55°28' E 014°37'714.8
2017-Jun-16 22:31N 55°27' E 014°50'714.9
2017-Jun-16 22:01N 55°27' E 015°03'815.1
2017-Jun-16 21:31N 55°27' E 015°16'815.3
2017-Jun-16 21:00N 55°27' E 015°30'814.8
2017-Jun-16 20:30N 55°27' E 015°43'1014.9
2017-Jun-16 19:47N 55°27' E 016°02'614.7
2017-Jun-16 19:23N 55°25' E 016°12'514.6
2017-Jun-16 19:00N 55°23' E 016°21'6214.6
2017-Jun-16 14:44N 55°05' E 018°06'1014.3
2017-Jun-16 14:01N 55°02' E 018°23'612.1
2017-Jun-16 13:30N 54°60' E 018°33'611.4
2017-Jun-16 13:00N 54°56' E 018°40'714.6
2017-Jun-16 12:30N 54°51' E 018°50'714.5
2017-Jun-16 12:01N 54°46' E 018°58'815.2
2017-Jun-16 11:30N 54°38' E 018°56'815.6
2017-Jun-16 11:00N 54°32' E 018°49'714.7
2017-Jun-16 10:30N 54°27' E 018°40'3 5.3
2017-Jun-16 10:00N 54°24' E 018°41'2 4.0
2017-Jun-16 09:30N 54°22' E 018°40'0 0.8
2017-Jun-16 09:00N 54°22' E 018°40'0 0.0
2017-Jun-16 08:29N 54°22' E 018°40'0 0.0
2017-Jun-16 07:59N 54°22' E 018°40'0 0.0
2017-Jun-16 07:28N 54°22' E 018°40'0 0.0
2017-Jun-16 07:00N 54°22' E 018°40'0 0.0
2017-Jun-16 06:28N 54°22' E 018°40'0 0.0
2017-Jun-16 05:58N 54°22' E 018°40'0 0.0
2017-Jun-16 05:28N 54°22' E 018°40'0 0.0
2017-Jun-16 04:54N 54°22' E 018°40'0 0.0
2017-Jun-16 04:29N 54°22' E 018°40'0 0.0
2017-Jun-16 03:59N 54°22' E 018°40'0 0.0
2017-Jun-16 03:30N 54°22' E 018°40'0 0.0
2017-Jun-16 02:58N 54°22' E 018°40'0 0.0
2017-Jun-16 02:29N 54°22' E 018°40'0 0.0
2017-Jun-16 01:59N 54°22' E 018°40'0 0.0
2017-Jun-16 01:29N 54°22' E 018°40'0 0.0
2017-Jun-16 01:00N 54°22' E 018°40'0 0.0
2017-Jun-16 00:27N 54°22' E 018°40'0 0.0
2017-Jun-15 23:59N 54°22' E 018°40'0 0.0
2017-Jun-15 23:28N 54°22' E 018°40'0 0.0
2017-Jun-15 22:58N 54°22' E 018°40'0 0.0
2017-Jun-15 22:28N 54°22' E 018°40'0 0.0
2017-Jun-15 21:59N 54°22' E 018°40'0 0.0
2017-Jun-15 21:29N 54°22' E 018°40'0 0.0
2017-Jun-15 20:58N 54°22' E 018°40'0 0.0
2017-Jun-15 20:29N 54°22' E 018°40'0 0.0
2017-Jun-15 19:59N 54°22' E 018°40'0 0.0
2017-Jun-15 19:29N 54°22' E 018°40'0 0.0
2017-Jun-15 18:59N 54°22' E 018°40'0 0.0
2017-Jun-15 18:26N 54°22' E 018°40'0 0.0
2017-Jun-15 17:58N 54°22' E 018°40'0 0.0
2017-Jun-15 17:29N 54°22' E 018°40'0 0.0
2017-Jun-15 17:00N 54°22' E 018°40'0 0.0
2017-Jun-15 16:29N 54°22' E 018°40'0 0.0
2017-Jun-15 15:58N 54°22' E 018°40'0 0.0
2017-Jun-15 15:29N 54°22' E 018°40'0 0.0
2017-Jun-15 14:59N 54°22' E 018°40'0 0.0
2017-Jun-15 14:30N 54°22' E 018°40'0 0.0
2017-Jun-15 13:28N 54°22' E 018°40'0 0.0
2017-Jun-15 12:57N 54°22' E 018°40'0 0.0
2017-Jun-15 12:28N 54°22' E 018°40'0 0.0
2017-Jun-15 12:00N 54°22' E 018°40'0 0.0
2017-Jun-15 11:29N 54°22' E 018°40'0 0.0
2017-Jun-15 10:58N 54°22' E 018°40'0 0.0
2017-Jun-15 10:29N 54°22' E 018°40'0 0.0
2017-Jun-15 09:59N 54°22' E 018°40'0 0.0
2017-Jun-15 09:29N 54°22' E 018°40'0 0.0
2017-Jun-15 08:59N 54°22' E 018°40'0 0.0
2017-Jun-15 08:30N 54°22' E 018°40'0 0.0
2017-Jun-15 07:59N 54°22' E 018°40'0 0.0
2017-Jun-15 07:28N 54°22' E 018°40'0 0.0
2017-Jun-15 06:59N 54°22' E 018°40'0 0.0
2017-Jun-15 06:29N 54°22' E 018°40'0 0.0
2017-Jun-15 06:00N 54°22' E 018°40'0 0.0
2017-Jun-15 05:30N 54°22' E 018°40'0 0.0
2017-Jun-15 05:00N 54°22' E 018°40'0 0.0
2017-Jun-15 04:23N 54°22' E 018°40'0 0.0
2017-Jun-15 04:00N 54°22' E 018°40'0 0.0
2017-Jun-15 03:29N 54°22' E 018°40'0 0.0
2017-Jun-15 02:57N 54°22' E 018°40'0 0.0
2017-Jun-15 02:23N 54°22' E 018°40'0 0.0
2017-Jun-15 01:58N 54°22' E 018°40'0 0.0
2017-Jun-15 01:29N 54°22' E 018°40'0 0.0
2017-Jun-15 00:59N 54°22' E 018°40'0 0.0
2017-Jun-15 00:29N 54°22' E 018°40'0 0.0
2017-Jun-14 23:58N 54°22' E 018°40'0 0.0
2017-Jun-14 23:28N 54°22' E 018°40'0 0.0
2017-Jun-14 22:54N 54°22' E 018°40'0 0.0
2017-Jun-14 22:29N 54°22' E 018°40'0 0.0
2017-Jun-14 22:00N 54°22' E 018°40'0 0.0
2017-Jun-14 21:29N 54°22' E 018°40'0 0.0
2017-Jun-14 21:00N 54°22' E 018°40'0 0.0
2017-Jun-14 20:28N 54°22' E 018°40'0 0.0
2017-Jun-14 20:00N 54°22' E 018°40'0 0.0
2017-Jun-14 19:25N 54°22' E 018°40'0 0.0
2017-Jun-14 18:59N 54°22' E 018°40'0 0.0
2017-Jun-14 18:29N 54°22' E 018°40'0 0.0
2017-Jun-14 17:58N 54°22' E 018°40'0 0.0
2017-Jun-14 17:28N 54°22' E 018°40'0 0.0
2017-Jun-14 16:56N 54°22' E 018°40'0 0.0
2017-Jun-14 16:28N 54°22' E 018°40'0 0.0
2017-Jun-14 15:58N 54°22' E 018°40'0 0.0
2017-Jun-14 15:26N 54°22' E 018°40'0 0.0
2017-Jun-14 14:55N 54°22' E 018°40'0 0.0
2017-Jun-14 14:00N 54°22' E 018°40'0 0.0
2017-Jun-14 13:29N 54°22' E 018°40'0 0.0
2017-Jun-14 12:58N 54°22' E 018°40'0 0.0
2017-Jun-14 12:24N 54°22' E 018°40'0 0.0
2017-Jun-14 12:00N 54°22' E 018°40'0 0.0
2017-Jun-14 11:29N 54°22' E 018°40'0 0.0
2017-Jun-14 10:58N 54°22' E 018°40'0 0.0
2017-Jun-14 10:29N 54°22' E 018°40'0 0.0
2017-Jun-14 10:00N 54°22' E 018°40'0 0.0
2017-Jun-14 09:29N 54°22' E 018°40'0 0.0
2017-Jun-14 08:59N 54°22' E 018°40'0 0.0
2017-Jun-14 08:29N 54°22' E 018°40'0 0.0
2017-Jun-14 08:00N 54°22' E 018°40'0 0.0
2017-Jun-14 07:28N 54°22' E 018°40'0 0.0
2017-Jun-14 06:59N 54°22' E 018°40'0 0.0
2017-Jun-14 06:24N 54°22' E 018°40'0 0.0
2017-Jun-14 05:59N 54°22' E 018°40'0 0.0
2017-Jun-14 05:30N 54°22' E 018°40'0 0.0
2017-Jun-14 04:58N 54°22' E 018°40'0 0.0
2017-Jun-14 04:29N 54°22' E 018°40'0 0.0
2017-Jun-14 04:00N 54°22' E 018°40'0 0.0
2017-Jun-14 03:26N 54°22' E 018°40'0 0.0
2017-Jun-14 02:59N 54°22' E 018°40'0 0.0
2017-Jun-14 02:30N 54°22' E 018°40'0 0.0
2017-Jun-14 02:00N 54°22' E 018°40'0 0.0
2017-Jun-14 01:28N 54°22' E 018°40'0 0.0
2017-Jun-14 00:58N 54°22' E 018°40'0 0.0
2017-Jun-14 00:30N 54°22' E 018°40'0 0.0
2017-Jun-13 23:58N 54°22' E 018°40'0 0.0
2017-Jun-13 23:28N 54°22' E 018°40'0 0.0
2017-Jun-13 22:53N 54°22' E 018°40'0 0.0
2017-Jun-13 22:29N 54°22' E 018°40'0 0.0
2017-Jun-13 22:00N 54°22' E 018°40'0 0.0
2017-Jun-13 21:29N 54°22' E 018°40'0 0.0
2017-Jun-13 20:59N 54°22' E 018°40'0 0.0
2017-Jun-13 20:25N 54°22' E 018°40'0 0.0
2017-Jun-13 19:58N 54°22' E 018°40'0 0.0
2017-Jun-13 19:29N 54°22' E 018°40'0 0.0
2017-Jun-13 18:58N 54°22' E 018°40'0 0.0
2017-Jun-13 18:28N 54°22' E 018°40'0 0.0
2017-Jun-13 17:59N 54°22' E 018°40'0 0.0
2017-Jun-13 17:30N 54°22' E 018°40'0 0.0
2017-Jun-13 17:00N 54°22' E 018°40'0 0.0
2017-Jun-13 16:30N 54°22' E 018°40'0 0.0
2017-Jun-13 16:00N 54°22' E 018°40'0 0.0
2017-Jun-13 15:30N 54°22' E 018°40'0 0.0
2017-Jun-13 14:58N 54°22' E 018°40'0 0.0
2017-Jun-13 14:30N 54°22' E 018°40'0 0.0
2017-Jun-13 13:29N 54°22' E 018°40'0 0.0
2017-Jun-13 12:58N 54°22' E 018°40'0 0.0
2017-Jun-13 12:25N 54°22' E 018°40'0 0.0
2017-Jun-13 11:59N 54°22' E 018°40'0 0.0
2017-Jun-13 11:29N 54°22' E 018°40'0 0.0
2017-Jun-13 10:58N 54°22' E 018°40'0 0.0
2017-Jun-13 10:30N 54°22' E 018°40'0 0.0
2017-Jun-13 09:55N 54°22' E 018°40'0 0.0
2017-Jun-13 09:28N 54°22' E 018°40'0 0.0
2017-Jun-13 08:59N 54°22' E 018°40'0 0.0
2017-Jun-13 08:29N 54°22' E 018°40'0 0.0
2017-Jun-13 07:58N 54°22' E 018°40'0 0.0
2017-Jun-13 07:30N 54°22' E 018°40'0 0.0
2017-Jun-13 06:59N 54°22' E 018°40'0 0.0
2017-Jun-13 06:28N 54°22' E 018°40'0 0.0
2017-Jun-13 06:00N 54°22' E 018°40'0 0.0
2017-Jun-13 05:28N 54°22' E 018°40'0 0.0
2017-Jun-13 04:59N 54°22' E 018°40'0 0.0
2017-Jun-13 04:29N 54°22' E 018°40'0 0.0
2017-Jun-13 03:58N 54°22' E 018°40'0 0.0
2017-Jun-13 03:28N 54°22' E 018°40'0 0.0
2017-Jun-13 02:59N 54°22' E 018°40'0 0.0
2017-Jun-13 02:28N 54°22' E 018°40'0 0.0
2017-Jun-13 02:00N 54°22' E 018°40'0 0.0
2017-Jun-13 01:29N 54°22' E 018°40'0 0.0
2017-Jun-13 01:00N 54°22' E 018°40'0 0.0
2017-Jun-13 00:30N 54°22' E 018°40'0 0.0
2017-Jun-13 00:00N 54°22' E 018°40'0 0.0
2017-Jun-12 23:26N 54°22' E 018°40'0 0.0
2017-Jun-12 22:58N 54°22' E 018°40'0 0.0
2017-Jun-12 22:28N 54°22' E 018°40'0 0.0
2017-Jun-12 22:00N 54°22' E 018°40'0 0.0
2017-Jun-12 21:30N 54°22' E 018°40'0 0.0
2017-Jun-12 20:59N 54°22' E 018°40'0 0.0
2017-Jun-12 20:28N 54°22' E 018°40'0 0.0
2017-Jun-12 19:58N 54°22' E 018°40'0 0.0
2017-Jun-12 19:29N 54°22' E 018°40'0 0.0
2017-Jun-12 18:59N 54°22' E 018°40'0 0.0
2017-Jun-12 18:29N 54°22' E 018°40'0 0.0
2017-Jun-12 17:58N 54°22' E 018°40'0 0.0
2017-Jun-12 17:30N 54°22' E 018°40'0 0.0
2017-Jun-12 16:50N 54°22' E 018°40'0 0.0
2017-Jun-12 16:30N 54°22' E 018°40'0 0.0
2017-Jun-12 15:59N 54°22' E 018°40'0 0.0
2017-Jun-12 15:28N 54°22' E 018°40'0 0.0
2017-Jun-12 14:53N 54°22' E 018°40'0 0.0
2017-Jun-12 14:30N 54°22' E 018°40'0 0.0
2017-Jun-12 13:30N 54°22' E 018°40'0 0.0
2017-Jun-12 12:59N 54°22' E 018°40'0 0.0
2017-Jun-12 12:28N 54°22' E 018°40'0 0.0
2017-Jun-12 11:56N 54°22' E 018°40'0 0.0
2017-Jun-12 11:30N 54°22' E 018°40'0 0.0
2017-Jun-12 11:00N 54°22' E 018°40'0 0.0
2017-Jun-12 10:30N 54°22' E 018°40'0 0.0
2017-Jun-12 10:00N 54°22' E 018°40'0 0.0
2017-Jun-12 09:30N 54°22' E 018°40'0 0.0
2017-Jun-12 09:00N 54°22' E 018°40'0 0.0
2017-Jun-12 08:30N 54°22' E 018°40'0 0.0
2017-Jun-12 07:58N 54°22' E 018°40'0 0.0
2017-Jun-12 07:28N 54°22' E 018°40'0 0.0
2017-Jun-12 06:58N 54°22' E 018°40'0 0.0
2017-Jun-12 06:28N 54°22' E 018°40'0 0.0
2017-Jun-12 05:58N 54°22' E 018°40'0 0.0
2017-Jun-12 05:29N 54°22' E 018°40'0 0.0
2017-Jun-12 04:59N 54°22' E 018°40'0 0.0
2017-Jun-12 04:30N 54°22' E 018°40'0 0.0
2017-Jun-12 03:59N 54°22' E 018°40'0 0.0
2017-Jun-12 03:29N 54°22' E 018°40'0 0.0
2017-Jun-12 02:58N 54°22' E 018°40'0 0.0
2017-Jun-12 02:29N 54°22' E 018°40'0 0.0
2017-Jun-12 01:58N 54°22' E 018°40'0 0.0
2017-Jun-12 01:30N 54°22' E 018°40'0 0.0
2017-Jun-12 00:55N 54°22' E 018°40'0 0.0
2017-Jun-12 00:29N 54°22' E 018°40'0 0.0
2017-Jun-12 00:00N 54°22' E 018°40'0 0.0
2017-Jun-11 23:30N 54°22' E 018°40'0 0.0
2017-Jun-11 22:58N 54°22' E 018°40'0 0.0
2017-Jun-11 22:30N 54°22' E 018°40'0 0.0
2017-Jun-11 21:59N 54°22' E 018°40'0 0.0
2017-Jun-11 21:28N 54°22' E 018°40'0 0.0
2017-Jun-11 20:59N 54°22' E 018°40'0 0.0
2017-Jun-11 20:29N 54°22' E 018°40'0 0.0
2017-Jun-11 19:58N 54°22' E 018°40'0 0.0
2017-Jun-11 19:28N 54°22' E 018°40'0 0.0
2017-Jun-11 18:53N 54°22' E 018°40'0 0.0
2017-Jun-11 18:29N 54°22' E 018°40'0 0.0
2017-Jun-11 17:58N 54°22' E 018°40'0 0.0
2017-Jun-11 17:30N 54°22' E 018°40'0 0.0
2017-Jun-11 16:58N 54°22' E 018°40'0 0.0
2017-Jun-11 16:28N 54°22' E 018°40'0 0.0
2017-Jun-11 16:00N 54°22' E 018°40'0 0.0
2017-Jun-11 15:25N 54°22' E 018°40'0 0.0
2017-Jun-11 14:59N 54°22' E 018°40'0 0.0
2017-Jun-11 14:00N 54°22' E 018°40'0 0.0
2017-Jun-11 13:27N 54°22' E 018°40'0 0.0
2017-Jun-11 12:58N 54°22' E 018°40'0 0.0
2017-Jun-11 12:30N 54°22' E 018°40'0 0.0
2017-Jun-11 12:00N 54°22' E 018°40'0 0.0
2017-Jun-11 11:30N 54°22' E 018°40'0 0.0
2017-Jun-11 10:54N 54°22' E 018°40'0 0.0
2017-Jun-11 10:30N 54°22' E 018°40'0 0.0
2017-Jun-11 10:00N 54°22' E 018°40'0 0.0
2017-Jun-11 09:25N 54°22' E 018°40'0 0.0
2017-Jun-11 09:00N 54°22' E 018°40'0 0.0
2017-Jun-11 08:29N 54°22' E 018°40'0 0.0
2017-Jun-11 07:59N 54°22' E 018°40'0 0.0
2017-Jun-11 07:29N 54°22' E 018°40'0 0.0
2017-Jun-11 07:00N 54°22' E 018°40'0 0.0
2017-Jun-11 06:28N 54°22' E 018°40'0 0.0
2017-Jun-11 06:00N 54°22' E 018°40'0 0.0
2017-Jun-11 05:28N 54°22' E 018°40'0 0.0
2017-Jun-11 04:58N 54°22' E 018°40'0 0.0
2017-Jun-11 04:28N 54°22' E 018°40'0 0.0
2017-Jun-11 04:00N 54°22' E 018°40'0 0.0
2017-Jun-11 03:25N 54°22' E 018°40'0 0.0
2017-Jun-11 02:57N 54°22' E 018°40'0 0.0
2017-Jun-11 02:29N 54°22' E 018°40'0 0.0
2017-Jun-11 01:58N 54°22' E 018°40'0 0.0
2017-Jun-11 01:28N 54°22' E 018°40'0 0.0
2017-Jun-11 00:56N 54°22' E 018°40'0 0.0
2017-Jun-11 00:29N 54°22' E 018°40'0 0.0
2017-Jun-10 23:57N 54°22' E 018°40'0 0.0
2017-Jun-10 23:27N 54°22' E 018°40'0 0.0
2017-Jun-10 23:00N 54°22' E 018°40'0 0.0
2017-Jun-10 22:28N 54°22' E 018°40'0 0.0
2017-Jun-10 21:58N 54°22' E 018°40'0 0.0
2017-Jun-10 21:26N 54°22' E 018°40'0 0.0
2017-Jun-10 20:55N 54°22' E 018°40'0 0.0
2017-Jun-10 20:27N 54°22' E 018°40'0 0.0
2017-Jun-10 19:58N 54°22' E 018°40'0 0.0
2017-Jun-10 19:30N 54°22' E 018°40'0 0.0
2017-Jun-10 18:59N 54°22' E 018°40'0 0.0
2017-Jun-10 18:28N 54°22' E 018°40'0 0.0
2017-Jun-10 17:58N 54°22' E 018°40'0 0.0
2017-Jun-10 17:28N 54°22' E 018°40'0 0.0
2017-Jun-10 16:58N 54°22' E 018°40'0 0.0
2017-Jun-10 16:30N 54°22' E 018°40'0 0.0
2017-Jun-10 15:58N 54°22' E 018°40'0 0.0
2017-Jun-10 15:26N 54°22' E 018°40'0 0.0
2017-Jun-10 14:59N 54°22' E 018°40'0 0.0
2017-Jun-10 13:57N 54°22' E 018°40'0 0.0
2017-Jun-10 13:28N 54°22' E 018°40'0 0.0
2017-Jun-10 12:59N 54°22' E 018°40'0 0.0
2017-Jun-10 12:28N 54°22' E 018°40'0 0.0
2017-Jun-10 11:58N 54°22' E 018°40'0 0.0
2017-Jun-10 11:27N 54°22' E 018°40'0 0.0
2017-Jun-10 10:58N 54°22' E 018°40'0 0.0
2017-Jun-10 10:28N 54°22' E 018°40'0 0.0
2017-Jun-10 10:00N 54°22' E 018°40'0 0.0
2017-Jun-10 09:28N 54°22' E 018°40'0 0.0
2017-Jun-10 08:59N 54°22' E 018°40'0 0.0
2017-Jun-10 08:29N 54°22' E 018°40'0 0.0
2017-Jun-10 07:59N 54°22' E 018°40'0 0.0
2017-Jun-10 07:25N 54°22' E 018°40'0 0.0
2017-Jun-10 07:00N 54°22' E 018°40'0 0.0
2017-Jun-10 06:23N 54°22' E 018°40'0 0.0
2017-Jun-10 06:00N 54°22' E 018°40'0 0.0
2017-Jun-10 05:28N 54°22' E 018°40'0 0.0
2017-Jun-10 04:59N 54°22' E 018°40'0 0.0
2017-Jun-10 04:30N 54°22' E 018°40'0 0.0
2017-Jun-10 03:58N 54°22' E 018°40'0 0.0
2017-Jun-10 03:28N 54°22' E 018°40'0 0.0
2017-Jun-10 02:55N 54°22' E 018°40'0 0.0
2017-Jun-10 02:29N 54°22' E 018°40'0 0.0
2017-Jun-10 01:59N 54°22' E 018°40'0 0.0
2017-Jun-10 01:30N 54°22' E 018°40'0 0.0
2017-Jun-10 00:59N 54°22' E 018°40'0 0.0
2017-Jun-10 00:28N 54°22' E 018°40'0 0.0
2017-Jun-09 23:58N 54°22' E 018°40'0 0.0
2017-Jun-09 23:28N 54°22' E 018°40'0 0.0
2017-Jun-09 22:58N 54°22' E 018°40'0 0.0
2017-Jun-09 22:30N 54°22' E 018°40'0 0.0
2017-Jun-09 22:00N 54°22' E 018°40'0 0.0
2017-Jun-09 21:29N 54°22' E 018°40'0 0.0
2017-Jun-09 20:57N 54°22' E 018°40'0 0.0
2017-Jun-09 20:29N 54°22' E 018°40'0 0.0
2017-Jun-09 19:59N 54°22' E 018°40'0 0.0
2017-Jun-09 19:29N 54°22' E 018°40'0 0.0
2017-Jun-09 18:59N 54°22' E 018°40'0 0.0
2017-Jun-09 18:24N 54°22' E 018°40'0 0.0
2017-Jun-09 18:00N 54°22' E 018°40'0 0.0
2017-Jun-09 17:29N 54°22' E 018°40'0 0.0
2017-Jun-09 16:58N 54°22' E 018°40'0 0.0
2017-Jun-09 16:29N 54°22' E 018°40'0 0.0
2017-Jun-09 15:59N 54°22' E 018°40'0 0.0
2017-Jun-09 15:28N 54°22' E 018°40'0 0.0
2017-Jun-09 14:57N 54°22' E 018°40'0 0.0
2017-Jun-09 13:59N 54°22' E 018°40'0 0.0
2017-Jun-09 13:30N 54°22' E 018°40'0 0.0
2017-Jun-09 12:58N 54°22' E 018°40'0 0.0
2017-Jun-09 12:29N 54°22' E 018°40'0 0.0
2017-Jun-09 12:00N 54°22' E 018°40'0 0.0
2017-Jun-09 11:28N 54°22' E 018°40'0 0.0
2017-Jun-09 11:00N 54°22' E 018°40'0 0.0
2017-Jun-09 10:30N 54°22' E 018°40'0 0.0
2017-Jun-09 09:57N 54°22' E 018°40'0 0.0
2017-Jun-09 09:25N 54°22' E 018°40'0 0.0
2017-Jun-09 08:59N 54°22' E 018°40'0 0.0
2017-Jun-09 08:29N 54°22' E 018°40'0 0.0
2017-Jun-09 07:58N 54°22' E 018°40'0 0.0
2017-Jun-09 07:30N 54°22' E 018°40'0 0.0
2017-Jun-09 06:59N 54°22' E 018°40'0 0.0
2017-Jun-09 06:29N 54°22' E 018°40'0 0.0
2017-Jun-09 06:00N 54°22' E 018°40'0 0.0
2017-Jun-09 05:28N 54°22' E 018°40'0 0.0
2017-Jun-09 04:59N 54°22' E 018°40'0 0.0
2017-Jun-09 04:30N 54°22' E 018°40'0 0.0
2017-Jun-09 03:59N 54°22' E 018°40'0 0.0
2017-Jun-09 03:28N 54°22' E 018°40'0 0.0
2017-Jun-09 03:00N 54°22' E 018°40'0 0.0
2017-Jun-09 02:29N 54°22' E 018°40'  
Track history (hours):
 
Tides and Currents Weather Stations Pressure Air Temp Water Temp Dewpoint Dewpoint Depression Visibility Wind Speed Wind Dir Waves Ship Positions

Boris Syromyatnikov

Last reported at 2017-Jun-19 02:26 UTC. Time now 2017-Jun-24 08:51 UTC.
Position N 58°39' E 004°45'.

Length 120 m; beam 19 m.

Type: Fishing. MMSI: 273529800.

Date/timePositionNaut miles runAvg speedWind from/ knotsBaromVisibWave heightAir tempDewpointWater temp
2017-Jun-19 02:26N 58°39' E 004°45'915.5
2017-Jun-19 01:53N 58°34' E 004°58'1515.7
2017-Jun-19 00:55N 58°24' E 005°20'615.7
2017-Jun-19 00:30N 58°20' E 005°29'815.9
2017-Jun-19 00:00N 58°14' E 005°40'815.7
2017-Jun-18 23:30N 58°09' E 005°52'815.7
2017-Jun-18 23:00N 58°05' E 006°03'815.5
2017-Jun-18 22:30N 57°60' E 006°15'815.3
2017-Jun-18 22:00N 57°54' E 006°24'815.5
2017-Jun-18 21:29N 57°49' E 006°36'815.6
2017-Jun-18 20:58N 57°47' E 006°51'715.4
2017-Jun-18 20:30N 57°46' E 007°04'815.2
2017-Jun-18 20:00N 57°45' E 007°18'815.2
2017-Jun-18 19:30N 57°45' E 007°32'815.3
2017-Jun-18 19:00N 57°45' E 007°47'714.9
2017-Jun-18 18:30N 57°46' E 008°01'5413.9
2017-Jun-18 14:36N 57°47' E 009°42'1014.0
2017-Jun-18 13:55N 57°47' E 010°00'613.4
2017-Jun-18 13:27N 57°48' E 010°12'613.4
2017-Jun-18 12:58N 57°48' E 010°24'612.6
2017-Jun-18 12:30N 57°48' E 010°35'4 8.8
2017-Jun-18 11:59N 57°48' E 010°44'4 8.3
2017-Jun-18 11:30N 57°44' E 010°46'510.4
2017-Jun-18 11:00N 57°41' E 010°38'1 1.4
2017-Jun-18 10:22N 57°41' E 010°36'0 0.0
2017-Jun-18 10:00N 57°41' E 010°36'0 0.0
2017-Jun-18 09:23N 57°41' E 010°36'0 0.0
2017-Jun-18 09:00N 57°41' E 010°36'0 0.0
2017-Jun-18 08:30N 57°41' E 010°36'0 0.0
2017-Jun-18 07:54N 57°41' E 010°36'0 0.0
2017-Jun-18 07:28N 57°41' E 010°36'0 0.0
2017-Jun-18 07:00N 57°41' E 010°36'0 0.0
2017-Jun-18 06:29N 57°41' E 010°36'0 0.0
2017-Jun-18 05:59N 57°41' E 010°36'0 0.0
2017-Jun-18 05:28N 57°41' E 010°36'0 0.0
2017-Jun-18 04:57N 57°41' E 010°36'0 0.0
2017-Jun-18 04:24N 57°41' E 010°36'0 0.0
2017-Jun-18 03:58N 57°41' E 010°36'0 0.0
2017-Jun-18 03:26N 57°41' E 010°36'0 0.0
2017-Jun-18 02:59N 57°41' E 010°36'0 0.0
2017-Jun-18 02:28N 57°41' E 010°36'0 0.0
2017-Jun-18 01:09N 57°41' E 010°36'0 0.0
2017-Jun-18 00:30N 57°41' E 010°36'0 0.0
2017-Jun-17 23:37N 57°41' E 010°36'0 0.0
2017-Jun-17 23:18N 57°41' E 010°36'0 0.0
2017-Jun-17 22:39N 57°41' E 010°36'0 0.0
2017-Jun-17 21:54N 57°41' E 010°36'0 0.0
2017-Jun-17 21:26N 57°41' E 010°36'0 0.0
2017-Jun-17 21:00N 57°41' E 010°36'0 0.0
2017-Jun-17 20:19N 57°41' E 010°36'0 0.1
2017-Jun-17 19:43N 57°41' E 010°36'1 2.8
2017-Jun-17 19:30N 57°41' E 010°37'3 6.1
2017-Jun-17 18:59N 57°40' E 010°43'510.8
2017-Jun-17 18:30N 57°37' E 010°51'713.3
2017-Jun-17 18:00N 57°34' E 011°03'714.0
2017-Jun-17 17:28N 57°31' E 011°15'714.3
2017-Jun-17 17:01N 57°28' E 011°26'714.5
2017-Jun-17 16:30N 57°21' E 011°31'714.4
2017-Jun-17 16:00N 57°14' E 011°35'714.7
2017-Jun-17 15:30N 57°07' E 011°40'714.5
2017-Jun-17 15:00N 57°00' E 011°44'1413.7
2017-Jun-17 14:00N 56°48' E 011°53'713.3
2017-Jun-17 13:30N 56°41' E 011°55'713.4
2017-Jun-17 12:58N 56°34' E 011°58'713.4
2017-Jun-17 12:27N 56°27' E 012°01'1013.3
2017-Jun-17 11:43N 56°18' E 012°05'313.6
2017-Jun-17 11:30N 56°16' E 012°10'713.7
2017-Jun-17 11:01N 56°13' E 012°20'713.4
2017-Jun-17 10:30N 56°09' E 012°30'713.1
2017-Jun-17 10:00N 56°04' E 012°38'611.1
2017-Jun-17 09:30N 55°59' E 012°42'611.2
2017-Jun-17 09:00N 55°54' E 012°44'612.2
2017-Jun-17 08:30N 55°48' E 012°43'4 7.4
2017-Jun-17 08:00N 55°44' E 012°40'0 0.1
2017-Jun-17 07:29N 55°44' E 012°40'0 0.0
2017-Jun-17 06:58N 55°44' E 012°40'0 0.5
2017-Jun-17 06:31N 55°44' E 012°40'5 9.8
2017-Jun-17 06:01N 55°39' E 012°42'510.5
2017-Jun-17 05:31N 55°34' E 012°42'510.2
2017-Jun-17 05:01N 55°29' E 012°43'4 7.6
2017-Jun-17 04:31N 55°25' E 012°42'713.2
2017-Jun-17 04:00N 55°19' E 012°42'713.7
2017-Jun-17 03:30N 55°16' E 012°53'714.3
2017-Jun-17 03:00N 55°16' E 013°06'914.6
2017-Jun-17 02:23N 55°15' E 013°21'614.6
2017-Jun-17 02:00N 55°15' E 013°31'714.5
2017-Jun-17 01:31N 55°14' E 013°44'714.6
2017-Jun-17 01:01N 55°14' E 013°56'714.5
2017-Jun-17 00:30N 55°14' E 014°09'713.1
2017-Jun-17 00:01N 55°16' E 014°20'815.2
2017-Jun-16 23:31N 55°22' E 014°28'714.7
2017-Jun-16 23:01N 55°28' E 014°37'714.8
2017-Jun-16 22:31N 55°27' E 014°50'714.9
2017-Jun-16 22:01N 55°27' E 015°03'815.1
2017-Jun-16 21:31N 55°27' E 015°16'815.3
2017-Jun-16 21:00N 55°27' E 015°30'814.8
2017-Jun-16 20:30N 55°27' E 015°43'1014.9
2017-Jun-16 19:47N 55°27' E 016°02'614.7
2017-Jun-16 19:23N 55°25' E 016°12'514.6
2017-Jun-16 19:00N 55°23' E 016°21'6214.6
2017-Jun-16 14:44N 55°05' E 018°06'1014.3
2017-Jun-16 14:01N 55°02' E 018°23'612.1
2017-Jun-16 13:30N 54°60' E 018°33'611.4
2017-Jun-16 13:00N 54°56' E 018°40'714.6
2017-Jun-16 12:30N 54°51' E 018°50'714.5
2017-Jun-16 12:01N 54°46' E 018°58'815.2
2017-Jun-16 11:30N 54°38' E 018°56'815.6
2017-Jun-16 11:00N 54°32' E 018°49'714.7
2017-Jun-16 10:30N 54°27' E 018°40'3 5.3
2017-Jun-16 10:00N 54°24' E 018°41'2 4.0
2017-Jun-16 09:30N 54°22' E 018°40'0 0.8
2017-Jun-16 09:00N 54°22' E 018°40'0 0.0
2017-Jun-16 08:29N 54°22' E 018°40'0 0.0
2017-Jun-16 07:59N 54°22' E 018°40'0 0.0
2017-Jun-16 07:28N 54°22' E 018°40'0 0.0
2017-Jun-16 07:00N 54°22' E 018°40'0 0.0
2017-Jun-16 06:28N 54°22' E 018°40'0 0.0
2017-Jun-16 05:58N 54°22' E 018°40'0 0.0
2017-Jun-16 05:28N 54°22' E 018°40'0 0.0
2017-Jun-16 04:54N 54°22' E 018°40'0 0.0
2017-Jun-16 04:29N 54°22' E 018°40'0 0.0
2017-Jun-16 03:59N 54°22' E 018°40'0 0.0
2017-Jun-16 03:30N 54°22' E 018°40'0 0.0
2017-Jun-16 02:58N 54°22' E 018°40'0 0.0
2017-Jun-16 02:29N 54°22' E 018°40'0 0.0
2017-Jun-16 01:59N 54°22' E 018°40'0 0.0
2017-Jun-16 01:29N 54°22' E 018°40'0 0.0
2017-Jun-16 01:00N 54°22' E 018°40'0 0.0
2017-Jun-16 00:27N 54°22' E 018°40'0 0.0
2017-Jun-15 23:59N 54°22' E 018°40'0 0.0
2017-Jun-15 23:28N 54°22' E 018°40'0 0.0
2017-Jun-15 22:58N 54°22' E 018°40'0 0.0
2017-Jun-15 22:28N 54°22' E 018°40'0 0.0
2017-Jun-15 21:59N 54°22' E 018°40'0 0.0
2017-Jun-15 21:29N 54°22' E 018°40'0 0.0
2017-Jun-15 20:58N 54°22' E 018°40'0 0.0
2017-Jun-15 20:29N 54°22' E 018°40'0 0.0
2017-Jun-15 19:59N 54°22' E 018°40'0 0.0
2017-Jun-15 19:29N 54°22' E 018°40'0 0.0
2017-Jun-15 18:59N 54°22' E 018°40'0 0.0
2017-Jun-15 18:26N 54°22' E 018°40'0 0.0
2017-Jun-15 17:58N 54°22' E 018°40'0 0.0
2017-Jun-15 17:29N 54°22' E 018°40'0 0.0
2017-Jun-15 17:00N 54°22' E 018°40'0 0.0
2017-Jun-15 16:29N 54°22' E 018°40'0 0.0
2017-Jun-15 15:58N 54°22' E 018°40'0 0.0
2017-Jun-15 15:29N 54°22' E 018°40'0 0.0
2017-Jun-15 14:59N 54°22' E 018°40'0 0.0
2017-Jun-15 14:30N 54°22' E 018°40'0 0.0
2017-Jun-15 13:28N 54°22' E 018°40'0 0.0
2017-Jun-15 12:57N 54°22' E 018°40'0 0.0
2017-Jun-15 12:28N 54°22' E 018°40'0 0.0
2017-Jun-15 12:00N 54°22' E 018°40'0 0.0
2017-Jun-15 11:29N 54°22' E 018°40'0 0.0
2017-Jun-15 10:58N 54°22' E 018°40'0 0.0
2017-Jun-15 10:29N 54°22' E 018°40'0 0.0
2017-Jun-15 09:59N 54°22' E 018°40'0 0.0
2017-Jun-15 09:29N 54°22' E 018°40'0 0.0
2017-Jun-15 08:59N 54°22' E 018°40'0 0.0
2017-Jun-15 08:30N 54°22' E 018°40'0 0.0
2017-Jun-15 07:59N 54°22' E 018°40'0 0.0
2017-Jun-15 07:28N 54°22' E 018°40'0 0.0
2017-Jun-15 06:59N 54°22' E 018°40'0 0.0
2017-Jun-15 06:29N 54°22' E 018°40'0 0.0
2017-Jun-15 06:00N 54°22' E 018°40'0 0.0
2017-Jun-15 05:30N 54°22' E 018°40'0 0.0
2017-Jun-15 05:00N 54°22' E 018°40'0 0.0
2017-Jun-15 04:23N 54°22' E 018°40'0 0.0
2017-Jun-15 04:00N 54°22' E 018°40'0 0.0
2017-Jun-15 03:29N 54°22' E 018°40'0 0.0
2017-Jun-15 02:57N 54°22' E 018°40'0 0.0
2017-Jun-15 02:23N 54°22' E 018°40'0 0.0
2017-Jun-15 01:58N 54°22' E 018°40'0 0.0
2017-Jun-15 01:29N 54°22' E 018°40'0 0.0
2017-Jun-15 00:59N 54°22' E 018°40'0 0.0
2017-Jun-15 00:29N 54°22' E 018°40'0 0.0
2017-Jun-14 23:58N 54°22' E 018°40'0 0.0
2017-Jun-14 23:28N 54°22' E 018°40'0 0.0
2017-Jun-14 22:54N 54°22' E 018°40'0 0.0
2017-Jun-14 22:29N 54°22' E 018°40'0 0.0
2017-Jun-14 22:00N 54°22' E 018°40'0 0.0
2017-Jun-14 21:29N 54°22' E 018°40'0 0.0
2017-Jun-14 21:00N 54°22' E 018°40'0 0.0
2017-Jun-14 20:28N 54°22' E 018°40'0 0.0
2017-Jun-14 20:00N 54°22' E 018°40'0 0.0
2017-Jun-14 19:25N 54°22' E 018°40'0 0.0
2017-Jun-14 18:59N 54°22' E 018°40'0 0.0
2017-Jun-14 18:29N 54°22' E 018°40'0 0.0
2017-Jun-14 17:58N 54°22' E 018°40'0 0.0
2017-Jun-14 17:28N 54°22' E 018°40'0 0.0
2017-Jun-14 16:56N 54°22' E 018°40'0 0.0
2017-Jun-14 16:28N 54°22' E 018°40'0 0.0
2017-Jun-14 15:58N 54°22' E 018°40'0 0.0
2017-Jun-14 15:26N 54°22' E 018°40'0 0.0
2017-Jun-14 14:55N 54°22' E 018°40'0 0.0
2017-Jun-14 14:00N 54°22' E 018°40'0 0.0
2017-Jun-14 13:29N 54°22' E 018°40'0 0.0
2017-Jun-14 12:58N 54°22' E 018°40'0 0.0
2017-Jun-14 12:24N 54°22' E 018°40'0 0.0
2017-Jun-14 12:00N 54°22' E 018°40'0 0.0
2017-Jun-14 11:29N 54°22' E 018°40'0 0.0
2017-Jun-14 10:58N 54°22' E 018°40'0 0.0
2017-Jun-14 10:29N 54°22' E 018°40'0 0.0
2017-Jun-14 10:00N 54°22' E 018°40'0 0.0
2017-Jun-14 09:29N 54°22' E 018°40'0 0.0
2017-Jun-14 08:59N 54°22' E 018°40'0 0.0
2017-Jun-14 08:29N 54°22' E 018°40'0 0.0
2017-Jun-14 08:00N 54°22' E 018°40'0 0.0
2017-Jun-14 07:28N 54°22' E 018°40'0 0.0
2017-Jun-14 06:59N 54°22' E 018°40'0 0.0
2017-Jun-14 06:24N 54°22' E 018°40'0 0.0
2017-Jun-14 05:59N 54°22' E 018°40'0 0.0
2017-Jun-14 05:30N 54°22' E 018°40'0 0.0
2017-Jun-14 04:58N 54°22' E 018°40'0 0.0
2017-Jun-14 04:29N 54°22' E 018°40'0 0.0
2017-Jun-14 04:00N 54°22' E 018°40'0 0.0
2017-Jun-14 03:26N 54°22' E 018°40'0 0.0
2017-Jun-14 02:59N 54°22' E 018°40'0 0.0
2017-Jun-14 02:30N 54°22' E 018°40'0 0.0
2017-Jun-14 02:00N 54°22' E 018°40'0 0.0
2017-Jun-14 01:28N 54°22' E 018°40'0 0.0
2017-Jun-14 00:58N 54°22' E 018°40'0 0.0
2017-Jun-14 00:30N 54°22' E 018°40'0 0.0
2017-Jun-13 23:58N 54°22' E 018°40'0 0.0
2017-Jun-13 23:28N 54°22' E 018°40'0 0.0
2017-Jun-13 22:53N 54°22' E 018°40'0 0.0
2017-Jun-13 22:29N 54°22' E 018°40'0 0.0
2017-Jun-13 22:00N 54°22' E 018°40'0 0.0
2017-Jun-13 21:29N 54°22' E 018°40'0 0.0
2017-Jun-13 20:59N 54°22' E 018°40'0 0.0
2017-Jun-13 20:25N 54°22' E 018°40'0 0.0
2017-Jun-13 19:58N 54°22' E 018°40'0 0.0
2017-Jun-13 19:29N 54°22' E 018°40'0 0.0
2017-Jun-13 18:58N 54°22' E 018°40'0 0.0
2017-Jun-13 18:28N 54°22' E 018°40'0 0.0
2017-Jun-13 17:59N 54°22' E 018°40'0 0.0
2017-Jun-13 17:30N 54°22' E 018°40'0 0.0
2017-Jun-13 17:00N 54°22' E 018°40'0 0.0
2017-Jun-13 16:30N 54°22' E 018°40'0 0.0
2017-Jun-13 16:00N 54°22' E 018°40'0 0.0
2017-Jun-13 15:30N 54°22' E 018°40'0 0.0
2017-Jun-13 14:58N 54°22' E 018°40'0 0.0
2017-Jun-13 14:30N 54°22' E 018°40'0 0.0
2017-Jun-13 13:29N 54°22' E 018°40'0 0.0
2017-Jun-13 12:58N 54°22' E 018°40'0 0.0
2017-Jun-13 12:25N 54°22' E 018°40'0 0.0
2017-Jun-13 11:59N 54°22' E 018°40'0 0.0
2017-Jun-13 11:29N 54°22' E 018°40'0 0.0
2017-Jun-13 10:58N 54°22' E 018°40'0 0.0
2017-Jun-13 10:30N 54°22' E 018°40'0 0.0
2017-Jun-13 09:55N 54°22' E 018°40'0 0.0
2017-Jun-13 09:28N 54°22' E 018°40'0 0.0
2017-Jun-13 08:59N 54°22' E 018°40'0 0.0
2017-Jun-13 08:29N 54°22' E 018°40'0 0.0
2017-Jun-13 07:58N 54°22' E 018°40'0 0.0
2017-Jun-13 07:30N 54°22' E 018°40'0 0.0
2017-Jun-13 06:59N 54°22' E 018°40'0 0.0
2017-Jun-13 06:28N 54°22' E 018°40'0 0.0
2017-Jun-13 06:00N 54°22' E 018°40'0 0.0
2017-Jun-13 05:28N 54°22' E 018°40'0 0.0
2017-Jun-13 04:59N 54°22' E 018°40'0 0.0
2017-Jun-13 04:29N 54°22' E 018°40'0 0.0
2017-Jun-13 03:58N 54°22' E 018°40'0 0.0
2017-Jun-13 03:28N 54°22' E 018°40'0 0.0
2017-Jun-13 02:59N 54°22' E 018°40'0 0.0
2017-Jun-13 02:28N 54°22' E 018°40'0 0.0
2017-Jun-13 02:00N 54°22' E 018°40'0 0.0
2017-Jun-13 01:29N 54°22' E 018°40'0 0.0
2017-Jun-13 01:00N 54°22' E 018°40'0 0.0
2017-Jun-13 00:30N 54°22' E 018°40'0 0.0
2017-Jun-13 00:00N 54°22' E 018°40'0 0.0
2017-Jun-12 23:26N 54°22' E 018°40'0 0.0
2017-Jun-12 22:58N 54°22' E 018°40'0 0.0
2017-Jun-12 22:28N 54°22' E 018°40'0 0.0
2017-Jun-12 22:00N 54°22' E 018°40'0 0.0
2017-Jun-12 21:30N 54°22' E 018°40'0 0.0
2017-Jun-12 20:59N 54°22' E 018°40'0 0.0
2017-Jun-12 20:28N 54°22' E 018°40'0 0.0
2017-Jun-12 19:58N 54°22' E 018°40'0 0.0
2017-Jun-12 19:29N 54°22' E 018°40'0 0.0
2017-Jun-12 18:59N 54°22' E 018°40'0 0.0
2017-Jun-12 18:29N 54°22' E 018°40'0 0.0
2017-Jun-12 17:58N 54°22' E 018°40'0 0.0
2017-Jun-12 17:30N 54°22' E 018°40'0 0.0
2017-Jun-12 16:50N 54°22' E 018°40'0 0.0
2017-Jun-12 16:30N 54°22' E 018°40'0 0.0
2017-Jun-12 15:59N 54°22' E 018°40'0 0.0
2017-Jun-12 15:28N 54°22' E 018°40'0 0.0
2017-Jun-12 14:53N 54°22' E 018°40'0 0.0
2017-Jun-12 14:30N 54°22' E 018°40'0 0.0
2017-Jun-12 13:30N 54°22' E 018°40'0 0.0
2017-Jun-12 12:59N 54°22' E 018°40'0 0.0
2017-Jun-12 12:28N 54°22' E 018°40'0 0.0
2017-Jun-12 11:56N 54°22' E 018°40'0 0.0
2017-Jun-12 11:30N 54°22' E 018°40'0 0.0
2017-Jun-12 11:00N 54°22' E 018°40'0 0.0
2017-Jun-12 10:30N 54°22' E 018°40'0 0.0
2017-Jun-12 10:00N 54°22' E 018°40'0 0.0
2017-Jun-12 09:30N 54°22' E 018°40'0 0.0
2017-Jun-12 09:00N 54°22' E 018°40'0 0.0
2017-Jun-12 08:30N 54°22' E 018°40'0 0.0
2017-Jun-12 07:58N 54°22' E 018°40'0 0.0
2017-Jun-12 07:28N 54°22' E 018°40'0 0.0
2017-Jun-12 06:58N 54°22' E 018°40'0 0.0
2017-Jun-12 06:28N 54°22' E 018°40'0 0.0
2017-Jun-12 05:58N 54°22' E 018°40'0 0.0
2017-Jun-12 05:29N 54°22' E 018°40'0 0.0
2017-Jun-12 04:59N 54°22' E 018°40'0 0.0
2017-Jun-12 04:30N 54°22' E 018°40'0 0.0
2017-Jun-12 03:59N 54°22' E 018°40'0 0.0
2017-Jun-12 03:29N 54°22' E 018°40'0 0.0
2017-Jun-12 02:58N 54°22' E 018°40'0 0.0
2017-Jun-12 02:29N 54°22' E 018°40'0 0.0
2017-Jun-12 01:58N 54°22' E 018°40'0 0.0
2017-Jun-12 01:30N 54°22' E 018°40'0 0.0
2017-Jun-12 00:55N 54°22' E 018°40'0 0.0
2017-Jun-12 00:29N 54°22' E 018°40'0 0.0
2017-Jun-12 00:00N 54°22' E 018°40'0 0.0
2017-Jun-11 23:30N 54°22' E 018°40'0 0.0
2017-Jun-11 22:58N 54°22' E 018°40'0 0.0
2017-Jun-11 22:30N 54°22' E 018°40'0 0.0
2017-Jun-11 21:59N 54°22' E 018°40'0 0.0
2017-Jun-11 21:28N 54°22' E 018°40'0 0.0
2017-Jun-11 20:59N 54°22' E 018°40'0 0.0
2017-Jun-11 20:29N 54°22' E 018°40'0 0.0
2017-Jun-11 19:58N 54°22' E 018°40'0 0.0
2017-Jun-11 19:28N 54°22' E 018°40'0 0.0
2017-Jun-11 18:53N 54°22' E 018°40'0 0.0
2017-Jun-11 18:29N 54°22' E 018°40'0 0.0
2017-Jun-11 17:58N 54°22' E 018°40'0 0.0
2017-Jun-11 17:30N 54°22' E 018°40'0 0.0
2017-Jun-11 16:58N 54°22' E 018°40'0 0.0
2017-Jun-11 16:28N 54°22' E 018°40'0 0.0
2017-Jun-11 16:00N 54°22' E 018°40'0 0.0
2017-Jun-11 15:25N 54°22' E 018°40'0 0.0
2017-Jun-11 14:59N 54°22' E 018°40'0 0.0
2017-Jun-11 14:00N 54°22' E 018°40'0 0.0
2017-Jun-11 13:27N 54°22' E 018°40'0 0.0
2017-Jun-11 12:58N 54°22' E 018°40'0 0.0
2017-Jun-11 12:30N 54°22' E 018°40'0 0.0
2017-Jun-11 12:00N 54°22' E 018°40'0 0.0
2017-Jun-11 11:30N 54°22' E 018°40'0 0.0
2017-Jun-11 10:54N 54°22' E 018°40'0 0.0
2017-Jun-11 10:30N 54°22' E 018°40'0 0.0
2017-Jun-11 10:00N 54°22' E 018°40'0 0.0
2017-Jun-11 09:25N 54°22' E 018°40'0 0.0
2017-Jun-11 09:00N 54°22' E 018°40'0 0.0
2017-Jun-11 08:29N 54°22' E 018°40'0 0.0
2017-Jun-11 07:59N 54°22' E 018°40'0 0.0
2017-Jun-11 07:29N 54°22' E 018°40'0 0.0
2017-Jun-11 07:00N 54°22' E 018°40'0 0.0
2017-Jun-11 06:28N 54°22' E 018°40'0 0.0
2017-Jun-11 06:00N 54°22' E 018°40'0 0.0
2017-Jun-11 05:28N 54°22' E 018°40'0 0.0
2017-Jun-11 04:58N 54°22' E 018°40'0 0.0
2017-Jun-11 04:28N 54°22' E 018°40'0 0.0
2017-Jun-11 04:00N 54°22' E 018°40'0 0.0
2017-Jun-11 03:25N 54°22' E 018°40'0 0.0
2017-Jun-11 02:57N 54°22' E 018°40'0 0.0
2017-Jun-11 02:29N 54°22' E 018°40'0 0.0
2017-Jun-11 01:58N 54°22' E 018°40'0 0.0
2017-Jun-11 01:28N 54°22' E 018°40'0 0.0
2017-Jun-11 00:56N 54°22' E 018°40'0 0.0
2017-Jun-11 00:29N 54°22' E 018°40'0 0.0
2017-Jun-10 23:57N 54°22' E 018°40'0 0.0
2017-Jun-10 23:27N 54°22' E 018°40'0 0.0
2017-Jun-10 23:00N 54°22' E 018°40'0 0.0
2017-Jun-10 22:28N 54°22' E 018°40'0 0.0
2017-Jun-10 21:58N 54°22' E 018°40'0 0.0
2017-Jun-10 21:26N 54°22' E 018°40'0 0.0
2017-Jun-10 20:55N 54°22' E 018°40'0 0.0
2017-Jun-10 20:27N 54°22' E 018°40'0 0.0
2017-Jun-10 19:58N 54°22' E 018°40'0 0.0
2017-Jun-10 19:30N 54°22' E 018°40'0 0.0
2017-Jun-10 18:59N 54°22' E 018°40'0 0.0
2017-Jun-10 18:28N 54°22' E 018°40'0 0.0
2017-Jun-10 17:58N 54°22' E 018°40'0 0.0
2017-Jun-10 17:28N 54°22' E 018°40'0 0.0
2017-Jun-10 16:58N 54°22' E 018°40'0 0.0
2017-Jun-10 16:30N 54°22' E 018°40'0 0.0
2017-Jun-10 15:58N 54°22' E 018°40'0 0.0
2017-Jun-10 15:26N 54°22' E 018°40'0 0.0
2017-Jun-10 14:59N 54°22' E 018°40'0 0.0
2017-Jun-10 13:57N 54°22' E 018°40'0 0.0
2017-Jun-10 13:28N 54°22' E 018°40'0 0.0
2017-Jun-10 12:59N 54°22' E 018°40'0 0.0
2017-Jun-10 12:28N 54°22' E 018°40'0 0.0
2017-Jun-10 11:58N 54°22' E 018°40'0 0.0
2017-Jun-10 11:27N 54°22' E 018°40'0 0.0
2017-Jun-10 10:58N 54°22' E 018°40'0 0.0
2017-Jun-10 10:28N 54°22' E 018°40'0 0.0
2017-Jun-10 10:00N 54°22' E 018°40'0 0.0
2017-Jun-10 09:28N 54°22' E 018°40'0 0.0
2017-Jun-10 08:59N 54°22' E 018°40'0 0.0
2017-Jun-10 08:29N 54°22' E 018°40'0 0.0
2017-Jun-10 07:59N 54°22' E 018°40'0 0.0
2017-Jun-10 07:25N 54°22' E 018°40'0 0.0
2017-Jun-10 07:00N 54°22' E 018°40'0 0.0
2017-Jun-10 06:23N 54°22' E 018°40'0 0.0
2017-Jun-10 06:00N 54°22' E 018°40'0 0.0
2017-Jun-10 05:28N 54°22' E 018°40'0 0.0
2017-Jun-10 04:59N 54°22' E 018°40'0 0.0
2017-Jun-10 04:30N 54°22' E 018°40'0 0.0
2017-Jun-10 03:58N 54°22' E 018°40'0 0.0
2017-Jun-10 03:28N 54°22' E 018°40'0 0.0
2017-Jun-10 02:55N 54°22' E 018°40'0 0.0
2017-Jun-10 02:29N 54°22' E 018°40'0 0.0
2017-Jun-10 01:59N 54°22' E 018°40'0 0.0
2017-Jun-10 01:30N 54°22' E 018°40'0 0.0
2017-Jun-10 00:59N 54°22' E 018°40'0 0.0
2017-Jun-10 00:28N 54°22' E 018°40'0 0.0
2017-Jun-09 23:58N 54°22' E 018°40'0 0.0
2017-Jun-09 23:28N 54°22' E 018°40'0 0.0
2017-Jun-09 22:58N 54°22' E 018°40'0 0.0
2017-Jun-09 22:30N 54°22' E 018°40'0 0.0
2017-Jun-09 22:00N 54°22' E 018°40'0 0.0
2017-Jun-09 21:29N 54°22' E 018°40'0 0.0
2017-Jun-09 20:57N 54°22' E 018°40'0 0.0
2017-Jun-09 20:29N 54°22' E 018°40'0 0.0
2017-Jun-09 19:59N 54°22' E 018°40'0 0.0
2017-Jun-09 19:29N 54°22' E 018°40'0 0.0
2017-Jun-09 18:59N 54°22' E 018°40'0 0.0
2017-Jun-09 18:24N 54°22' E 018°40'0 0.0
2017-Jun-09 18:00N 54°22' E 018°40'0 0.0
2017-Jun-09 17:29N 54°22' E 018°40'0 0.0
2017-Jun-09 16:58N 54°22' E 018°40'0 0.0
2017-Jun-09 16:29N 54°22' E 018°40'0 0.0
2017-Jun-09 15:59N 54°22' E 018°40'0 0.0
2017-Jun-09 15:28N 54°22' E 018°40'0 0.0
2017-Jun-09 14:57N 54°22' E 018°40'0 0.0
2017-Jun-09 13:59N 54°22' E 018°40'0 0.0
2017-Jun-09 13:30N 54°22' E 018°40'0 0.0
2017-Jun-09 12:58N 54°22' E 018°40'0 0.0
2017-Jun-09 12:29N 54°22' E 018°40'0 0.0
2017-Jun-09 12:00N 54°22' E 018°40'0 0.0
2017-Jun-09 11:28N 54°22' E 018°40'0 0.0
2017-Jun-09 11:00N 54°22' E 018°40'0 0.0
2017-Jun-09 10:30N 54°22' E 018°40'0 0.0
2017-Jun-09 09:57N 54°22' E 018°40'0 0.0
2017-Jun-09 09:25N 54°22' E 018°40'0 0.0
2017-Jun-09 08:59N 54°22' E 018°40'0 0.0
2017-Jun-09 08:29N 54°22' E 018°40'0 0.0
2017-Jun-09 07:58N 54°22' E 018°40'0 0.0
2017-Jun-09 07:30N 54°22' E 018°40'0 0.0
2017-Jun-09 06:59N 54°22' E 018°40'0 0.0
2017-Jun-09 06:29N 54°22' E 018°40'0 0.0
2017-Jun-09 06:00N 54°22' E 018°40'0 0.0
2017-Jun-09 05:28N 54°22' E 018°40'0 0.0
2017-Jun-09 04:59N 54°22' E 018°40'0 0.0
2017-Jun-09 04:30N 54°22' E 018°40'0 0.0
2017-Jun-09 03:59N 54°22' E 018°40'0 0.0
2017-Jun-09 03:28N 54°22' E 018°40'0 0.0
2017-Jun-09 03:00N 54°22' E 018°40'0 0.0
2017-Jun-09 02:29N 54°22' E 018°40'  

Dump ship's entire track history